createdAt,value
2018-11-03T00:01:43.633Z,7.90
2018-11-03T00:04:11.073Z,10.20
2018-11-03T00:06:38.530Z,9.50
2018-11-03T00:09:07.842Z,9.60
2018-11-03T00:11:35.168Z,8.70
2018-11-03T00:14:02.460Z,8.60
2018-11-03T00:16:29.805Z,9.00
2018-11-03T00:18:57.124Z,8.90
2018-11-03T00:21:24.448Z,9.40
2018-11-03T00:23:51.802Z,8.70
2018-11-03T00:26:19.122Z,9.30
2018-11-03T00:28:46.425Z,9.10
2018-11-03T00:31:13.725Z,8.90
2018-11-03T00:33:41.033Z,9.60
2018-11-03T00:36:08.352Z,9.60
2018-11-03T00:38:35.687Z,10.40
2018-11-03T00:41:02.965Z,9.50
2018-11-03T00:43:30.292Z,9.10
2018-11-03T00:45:57.598Z,9.00
2018-11-03T00:48:24.904Z,9.70
2018-11-03T00:50:52.190Z,10.60
2018-11-03T00:53:19.534Z,10.00
2018-11-03T00:55:46.832Z,9.60
2018-11-03T00:58:14.137Z,9.90
2018-11-03T01:00:41.437Z,9.30
2018-11-03T01:03:08.797Z,9.40
2018-11-03T01:05:36.124Z,9.20
2018-11-03T01:08:03.464Z,8.80
2018-11-03T01:10:30.794Z,8.80
2018-11-03T01:12:58.096Z,9.20
2018-11-03T01:15:25.449Z,8.00
2018-11-03T01:17:52.811Z,10.60
2018-11-03T01:20:20.144Z,8.30
2018-11-03T01:22:47.484Z,9.50
2018-11-03T01:25:14.788Z,9.30
2018-11-03T01:27:42.087Z,9.20
2018-11-03T01:30:11.536Z,10.90
2018-11-03T01:32:38.881Z,9.00
2018-11-03T01:35:06.872Z,10.80
2018-11-03T01:37:34.222Z,10.10
2018-11-03T01:40:01.548Z,9.10
2018-11-03T01:42:28.875Z,9.40
2018-11-03T01:44:56.233Z,8.70
2018-11-03T01:47:23.597Z,9.20
2018-11-03T01:49:50.905Z,9.90
2018-11-03T01:52:18.239Z,7.70
2018-11-03T01:54:45.537Z,9.20
2018-11-03T01:57:12.840Z,9.40
2018-11-03T01:59:40.165Z,9.10
2018-11-03T02:02:07.510Z,9.80
2018-11-03T02:04:34.816Z,9.50
2018-11-03T02:07:02.141Z,10.20
2018-11-03T02:09:29.450Z,9.50
2018-11-03T02:11:56.772Z,9.60
2018-11-03T02:14:24.152Z,10.70
2018-11-03T02:16:51.450Z,10.30
2018-11-03T02:19:18.746Z,9.90
2018-11-03T02:21:46.421Z,8.30
2018-11-03T02:24:13.697Z,8.90
2018-11-03T02:26:40.989Z,9.20
2018-11-03T02:29:08.302Z,8.80
2018-11-03T02:31:35.586Z,10.40
2018-11-03T02:34:02.900Z,9.20
2018-11-03T02:36:30.234Z,10.10
2018-11-03T02:38:57.544Z,8.60
2018-11-03T02:41:24.837Z,9.20
2018-11-03T02:43:52.508Z,8.80
2018-11-03T02:46:19.797Z,9.60
2018-11-03T02:48:47.111Z,8.70
2018-11-03T02:51:14.788Z,9.40
2018-11-03T02:53:42.057Z,9.40
2018-11-03T02:56:09.369Z,7.60
2018-11-03T02:58:36.668Z,8.70
2018-11-03T03:01:04.044Z,9.90
2018-11-03T03:03:31.377Z,9.90
2018-11-03T03:05:58.645Z,9.40
2018-11-03T03:08:26.061Z,9.20
2018-11-03T03:10:53.328Z,9.20
2018-11-03T03:13:20.605Z,8.90
2018-11-03T03:15:47.907Z,10.30
2018-11-03T03:18:15.189Z,8.90
2018-11-03T03:20:42.469Z,8.70
2018-11-03T03:23:09.772Z,9.20
2018-11-03T03:25:37.116Z,8.80
2018-11-03T03:28:18.169Z,8.60
2018-11-03T03:30:45.527Z,8.50
2018-11-03T03:33:12.849Z,8.70
2018-11-03T03:35:40.697Z,8.90
2018-11-03T03:38:07.977Z,8.70
2018-11-03T03:40:35.246Z,8.50
2018-11-03T03:43:02.642Z,8.80
2018-11-03T03:45:29.948Z,8.70
2018-11-03T03:47:57.735Z,8.80
2018-11-03T03:50:25.023Z,8.70
2018-11-03T03:52:52.292Z,8.60
2018-11-03T03:55:19.572Z,8.80
2018-11-03T03:57:46.858Z,8.70
2018-11-03T04:00:14.154Z,8.70
2018-11-03T04:02:41.527Z,8.80
2018-11-03T04:05:09.264Z,8.70
2018-11-03T04:07:36.656Z,8.80
2018-11-03T04:10:05.163Z,8.90
2018-11-03T04:12:32.471Z,8.70
2018-11-03T04:14:59.804Z,8.80
2018-11-03T04:17:27.069Z,9.80
2018-11-03T04:19:54.514Z,8.80
2018-11-03T04:22:21.814Z,8.60
2018-11-03T04:24:49.109Z,8.40
2018-11-03T04:27:16.377Z,8.60
2018-11-03T04:29:43.709Z,8.50
2018-11-03T04:32:11.155Z,8.70
2018-11-03T04:34:38.551Z,8.60
2018-11-03T04:37:05.850Z,8.60
2018-11-03T04:39:33.132Z,8.40
2018-11-03T04:42:00.390Z,8.70
2018-11-03T04:44:27.780Z,8.80
2018-11-03T04:46:55.069Z,8.70
2018-11-03T04:49:22.351Z,8.70
2018-11-03T04:51:49.676Z,8.70
2018-11-03T04:54:17.097Z,8.80
2018-11-03T04:56:44.421Z,8.60
2018-11-03T04:59:12.881Z,8.90
2018-11-03T05:01:40.458Z,8.60
2018-11-03T05:04:07.866Z,8.70
2018-11-03T05:06:35.135Z,9.30
2018-11-03T05:09:02.485Z,8.90
2018-11-03T05:11:29.758Z,8.30
2018-11-03T05:13:57.041Z,8.50
2018-11-03T05:16:24.333Z,8.60
2018-11-03T05:18:51.604Z,8.70
2018-11-03T05:21:18.995Z,8.60
2018-11-03T05:23:46.215Z,8.70
2018-11-03T05:26:13.680Z,8.60
2018-11-03T05:28:41.342Z,8.70
2018-11-03T05:31:08.708Z,8.60
2018-11-03T05:33:36.176Z,8.60
2018-11-03T05:36:03.541Z,8.60
2018-11-03T05:38:30.829Z,8.60
2018-11-03T05:40:58.202Z,8.70
2018-11-03T05:43:25.501Z,8.40
2018-11-03T05:45:52.852Z,8.70
2018-11-03T05:48:20.403Z,8.80
2018-11-03T05:50:47.722Z,8.40
2018-11-03T05:53:14.997Z,8.60
2018-11-03T05:55:42.314Z,8.70
2018-11-03T05:58:09.572Z,8.50
2018-11-03T06:00:36.884Z,8.60
2018-11-03T06:03:04.396Z,8.60
2018-11-03T06:05:31.707Z,8.60
2018-11-03T06:07:59.052Z,8.80
2018-11-03T06:10:26.372Z,8.60
2018-11-03T06:12:53.697Z,8.60
2018-11-03T06:15:21.114Z,8.80
2018-11-03T06:17:48.345Z,8.60
2018-11-03T06:20:15.666Z,8.70
2018-11-03T06:22:43.273Z,8.50
2018-11-03T06:25:10.472Z,8.30
2018-11-03T06:27:38.179Z,8.90
2018-11-03T06:30:06.748Z,8.50
2018-11-03T06:32:34.081Z,8.70
2018-11-03T06:35:01.395Z,8.90
2018-11-03T06:37:28.657Z,8.70
2018-11-03T06:39:55.964Z,8.80
2018-11-03T06:42:23.283Z,8.70
2018-11-03T06:44:50.722Z,8.80
2018-11-03T06:47:18.091Z,8.80
2018-11-03T06:49:45.404Z,8.90
2018-11-03T06:52:12.771Z,8.90
2018-11-03T06:54:40.022Z,8.80
2018-11-03T06:57:07.511Z,9.00
2018-11-03T06:59:34.819Z,9.00
2018-11-03T07:02:02.312Z,9.20
2018-11-03T07:04:29.595Z,8.90
2018-11-03T07:06:56.889Z,9.00
2018-11-03T07:09:24.145Z,8.90
2018-11-03T07:11:51.422Z,9.10
2018-11-03T07:14:18.681Z,8.90
2018-11-03T07:16:46.040Z,8.90
2018-11-03T07:19:13.338Z,9.00
2018-11-03T07:21:41.105Z,9.20
2018-11-03T07:24:08.297Z,9.10
2018-11-03T07:26:36.084Z,9.20
2018-11-03T07:29:03.513Z,9.30
2018-11-03T07:31:30.788Z,9.60
2018-11-03T07:33:58.340Z,9.40
2018-11-03T07:36:25.645Z,9.50
2018-11-03T07:41:22.353Z,10.20
2018-11-03T07:43:49.589Z,9.90
2018-11-03T07:46:16.898Z,10.00
2018-11-03T07:48:44.262Z,10.20
2018-11-03T07:51:12.069Z,10.30
2018-11-03T07:53:39.350Z,10.30
2018-11-03T07:56:06.723Z,10.40
2018-11-03T07:58:34.014Z,10.60
2018-11-03T08:01:01.357Z,10.80
2018-11-03T08:03:28.794Z,10.90
2018-11-03T08:05:56.056Z,11.00
2018-11-03T08:08:23.340Z,10.80
2018-11-03T08:10:50.678Z,10.90
2018-11-03T08:13:17.990Z,10.90
2018-11-03T08:15:45.427Z,11.00
2018-11-03T08:18:12.747Z,11.00
2018-11-03T08:20:40.038Z,11.20
2018-11-03T08:23:07.630Z,11.20
2018-11-03T08:25:36.952Z,11.30
2018-11-03T08:28:04.287Z,11.40
2018-11-03T08:30:31.605Z,11.60
2018-11-03T08:32:59.155Z,11.60
2018-11-03T08:35:26.489Z,11.60
2018-11-03T08:37:53.896Z,11.50
2018-11-03T08:40:21.281Z,11.50
2018-11-03T08:42:48.586Z,11.60
2018-11-03T08:45:15.927Z,11.80
2018-11-03T08:47:43.233Z,11.60
2018-11-03T08:50:11.648Z,11.70
2018-11-03T08:52:39.120Z,11.80
2018-11-03T08:55:07.549Z,11.90
2018-11-03T08:57:34.860Z,11.90
2018-11-03T09:00:02.435Z,12.00
2018-11-03T09:02:29.962Z,11.90
2018-11-03T09:04:57.284Z,12.00
2018-11-03T09:07:24.741Z,12.00
2018-11-03T09:09:52.060Z,11.90
2018-11-03T09:12:19.336Z,11.90
2018-11-03T09:14:46.719Z,11.90
2018-11-03T09:17:14.023Z,11.80
2018-11-03T09:19:42.192Z,11.90
2018-11-03T09:22:09.452Z,11.80
2018-11-03T09:24:36.783Z,11.90
2018-11-03T09:27:04.342Z,11.90
2018-11-03T09:29:31.637Z,12.00
2018-11-03T09:31:59.007Z,12.00
2018-11-03T09:34:26.255Z,12.00
2018-11-03T09:36:53.613Z,12.10
2018-11-03T09:39:20.933Z,12.10
2018-11-03T09:41:48.190Z,12.10
2018-11-03T09:44:15.520Z,12.50
2018-11-03T09:46:42.919Z,12.20
2018-11-03T09:49:10.209Z,12.30
2018-11-03T09:51:37.573Z,12.40
2018-11-03T09:54:05.005Z,12.40
2018-11-03T09:56:32.334Z,12.40
2018-11-03T09:58:59.640Z,12.50
2018-11-03T10:01:27.054Z,12.40
2018-11-03T10:03:54.334Z,12.50
2018-11-03T10:08:48.907Z,12.40
2018-11-03T10:11:18.064Z,12.40
2018-11-03T10:13:48.484Z,12.40
2018-11-03T10:16:15.768Z,12.40
2018-11-03T10:18:43.032Z,12.50
2018-11-03T10:21:10.264Z,12.40
2018-11-03T10:23:37.500Z,12.50
2018-11-03T10:26:04.808Z,12.50
2018-11-03T10:28:32.064Z,12.60
2018-11-03T10:30:59.291Z,12.50
2018-11-03T10:33:26.594Z,12.40
2018-11-03T10:35:54.090Z,12.50
2018-11-03T10:38:21.348Z,12.40
2018-11-03T10:40:48.600Z,12.50
2018-11-03T10:43:15.935Z,12.50
2018-11-03T10:45:43.228Z,12.60
2018-11-03T10:48:10.504Z,13.60
2018-11-03T10:50:38.144Z,12.70
2018-11-03T10:53:05.424Z,13.40
2018-11-03T10:55:32.669Z,12.90
2018-11-03T10:57:59.952Z,14.60
2018-11-03T11:00:32.916Z,12.50
2018-11-03T11:03:05.982Z,14.60
2018-11-03T11:05:38.884Z,13.30
2018-11-03T11:08:11.789Z,11.90
2018-11-03T11:10:44.765Z,13.50
2018-11-03T11:13:20.472Z,14.60
2018-11-03T11:15:48.947Z,13.70
2018-11-03T11:18:16.144Z,13.60
2018-11-03T11:20:43.938Z,13.70
2018-11-03T11:23:11.197Z,13.80
2018-11-03T11:25:38.505Z,14.00
2018-11-03T11:28:05.936Z,14.20
2018-11-03T11:30:35.154Z,14.20
2018-11-03T11:33:02.736Z,14.30
2018-11-03T11:35:30.057Z,14.30
2018-11-03T11:37:57.724Z,15.70
2018-11-03T11:40:25.019Z,14.40
2018-11-03T11:42:52.406Z,15.30
2018-11-03T11:45:19.624Z,14.00
2018-11-03T11:47:46.848Z,14.00
2018-11-03T11:50:14.128Z,14.00
2018-11-03T11:52:41.417Z,14.20
2018-11-03T11:55:08.794Z,13.90
2018-11-03T11:57:35.947Z,14.00
2018-11-03T12:00:03.321Z,12.30
2018-11-03T12:02:30.636Z,13.80
2018-11-03T12:04:57.884Z,14.00
2018-11-03T12:07:25.140Z,14.30
2018-11-03T12:09:52.476Z,13.80
2018-11-03T12:12:19.751Z,13.90
2018-11-03T12:14:46.994Z,12.30
2018-11-03T12:17:14.325Z,13.90
2018-11-03T12:19:41.622Z,14.00
2018-11-03T12:22:08.840Z,14.20
2018-11-03T12:24:36.082Z,14.50
2018-11-03T12:27:03.337Z,14.60
2018-11-03T12:29:30.600Z,14.70
2018-11-03T12:31:58.040Z,14.80
2018-11-03T12:34:25.305Z,14.60
2018-11-03T12:36:52.590Z,14.50
2018-11-03T12:39:19.840Z,14.30
2018-11-03T12:41:47.086Z,14.50
2018-11-03T12:44:14.672Z,15.30
2018-11-03T12:46:41.940Z,13.90
2018-11-03T12:49:09.187Z,14.10
2018-11-03T12:51:36.481Z,14.80
2018-11-03T12:54:04.037Z,13.80
2018-11-03T12:56:31.277Z,14.70
2018-11-03T12:58:58.563Z,13.80
2018-11-03T13:01:25.851Z,14.00
2018-11-03T13:03:53.086Z,13.80
2018-11-03T13:06:20.332Z,13.90
2018-11-03T13:08:47.578Z,13.90
2018-11-03T13:11:14.822Z,14.00
2018-11-03T13:13:42.064Z,13.90
2018-11-03T13:16:09.349Z,14.10
2018-11-03T13:18:36.659Z,14.10
2018-11-03T13:21:04.081Z,13.90
2018-11-03T13:23:31.374Z,12.10
2018-11-03T13:25:58.629Z,14.10
2018-11-03T13:28:25.880Z,14.80
2018-11-03T13:30:53.150Z,14.00
2018-11-03T13:33:20.435Z,14.10
2018-11-03T13:35:47.713Z,14.20
2018-11-03T13:38:14.957Z,13.70
2018-11-03T13:40:42.263Z,15.10
2018-11-03T13:43:09.539Z,13.90
2018-11-03T13:45:36.772Z,13.90
2018-11-03T13:48:04.284Z,13.80
2018-11-03T13:50:31.540Z,13.70
2018-11-03T13:52:58.853Z,13.70
2018-11-03T13:55:26.178Z,13.70
2018-11-03T13:57:53.352Z,13.70
2018-11-03T14:00:20.580Z,13.50
2018-11-03T14:02:48.316Z,14.30
2018-11-03T14:07:42.857Z,13.40
2018-11-03T14:10:12.451Z,13.40
2018-11-03T14:12:42.444Z,14.60
2018-11-03T14:15:11.728Z,13.90
2018-11-03T14:17:38.969Z,11.50
2018-11-03T14:20:07.316Z,13.40
2018-11-03T14:22:34.556Z,13.70
2018-11-03T14:25:01.804Z,13.40
2018-11-03T14:27:30.729Z,13.30
2018-11-03T14:29:58.246Z,13.30
2018-11-03T14:32:25.908Z,12.80
2018-11-03T14:34:53.235Z,13.10
2018-11-03T14:37:20.736Z,13.40
2018-11-03T14:39:48.267Z,13.00
2018-11-03T14:42:17.015Z,13.80
2018-11-03T14:44:45.515Z,13.00
2018-11-03T14:47:13.838Z,13.00
2018-11-03T14:49:41.783Z,12.90
2018-11-03T14:52:09.281Z,11.70
2018-11-03T14:54:37.197Z,12.90
2018-11-03T14:57:05.438Z,10.80
2018-11-03T14:59:33.337Z,12.90
2018-11-03T15:02:01.328Z,12.90
2018-11-03T15:04:29.822Z,12.50
2018-11-03T15:06:58.222Z,13.60
2018-11-03T15:09:27.840Z,12.80
2018-11-03T15:11:56.928Z,12.40
2018-11-03T15:14:26.510Z,13.00
2018-11-03T15:16:55.046Z,12.80
2018-11-03T15:19:23.741Z,12.10
2018-11-03T15:21:53.493Z,12.90
2018-11-03T15:24:22.659Z,12.70
2018-11-03T15:26:51.608Z,12.60
2018-11-03T15:29:19.773Z,13.70
2018-11-03T15:31:48.385Z,12.60
2018-11-03T15:34:17.711Z,12.60
2018-11-03T15:36:46.330Z,12.60
2018-11-03T15:41:45.636Z,12.40
2018-11-03T15:44:56.017Z,12.80
2018-11-03T15:47:41.139Z,12.50
2018-11-03T15:50:30.577Z,12.50
2018-11-03T15:53:07.892Z,12.50
2018-11-03T15:55:35.445Z,13.20
2018-11-03T15:58:02.780Z,12.40
2018-11-03T16:00:32.730Z,12.40
2018-11-03T16:02:59.980Z,12.40
2018-11-03T16:05:27.339Z,12.70
2018-11-03T16:07:54.703Z,12.50
2018-11-03T16:10:22.002Z,12.40
2018-11-03T16:12:49.251Z,12.40
2018-11-03T16:15:16.532Z,11.70
2018-11-03T16:17:43.916Z,13.10
2018-11-03T16:20:12.231Z,12.30
2018-11-03T16:22:39.729Z,12.30
2018-11-03T16:25:10.113Z,12.90
2018-11-03T16:27:38.514Z,12.30
2018-11-03T16:30:08.039Z,12.60
2018-11-03T16:32:35.530Z,12.30
2018-11-03T16:35:02.660Z,12.30
2018-11-03T16:37:29.945Z,12.30
2018-11-03T16:39:57.220Z,12.30
2018-11-03T16:42:24.504Z,12.20
2018-11-03T16:44:51.858Z,12.20
2018-11-03T16:47:19.231Z,12.20
2018-11-03T16:49:46.535Z,12.20
2018-11-03T16:52:13.889Z,12.20
2018-11-03T16:57:08.642Z,12.10
2018-11-03T16:59:35.892Z,12.10
2018-11-03T17:02:03.479Z,12.10
2018-11-03T17:04:30.847Z,12.10
2018-11-03T17:06:58.235Z,12.00
2018-11-03T17:09:25.477Z,12.00
2018-11-03T17:11:52.764Z,12.10
2018-11-03T17:14:20.031Z,12.00
2018-11-03T17:16:47.603Z,12.10
2018-11-03T17:19:14.850Z,12.00
2018-11-03T17:21:42.180Z,12.00
2018-11-03T17:24:09.537Z,12.00
2018-11-03T17:26:36.831Z,12.00
2018-11-03T17:29:04.454Z,12.00
2018-11-03T17:31:32.132Z,12.00
2018-11-03T17:33:59.468Z,12.00
2018-11-03T17:36:27.113Z,12.00
2018-11-03T17:38:54.393Z,12.00
2018-11-03T17:41:21.733Z,12.00
2018-11-03T17:43:49.201Z,12.00
2018-11-03T17:46:16.812Z,12.00
2018-11-03T17:48:44.169Z,11.90
2018-11-03T17:51:11.457Z,12.00
2018-11-03T17:53:38.768Z,12.00
2018-11-03T17:56:06.045Z,11.90
2018-11-03T17:58:33.298Z,12.50
2018-11-03T18:01:00.677Z,11.90
2018-11-03T18:03:27.876Z,11.90
2018-11-03T18:05:55.204Z,12.00
2018-11-03T18:08:22.497Z,11.90
2018-11-03T18:10:49.950Z,11.90
2018-11-03T18:13:18.036Z,11.90
2018-11-03T18:15:45.363Z,11.90
2018-11-03T18:18:12.987Z,11.90
2018-11-03T18:20:40.251Z,11.90
2018-11-03T18:23:07.582Z,11.90
2018-11-03T18:25:34.978Z,11.80
2018-11-03T18:28:06.907Z,11.80
2018-11-03T18:30:34.797Z,11.80
2018-11-03T18:33:02.172Z,11.80
2018-11-03T18:35:29.433Z,11.80
2018-11-03T18:37:59.156Z,11.80
2018-11-03T18:40:26.304Z,11.80
2018-11-03T18:42:53.784Z,11.80
2018-11-03T18:45:21.094Z,11.80
2018-11-03T18:47:48.515Z,11.80
2018-11-03T18:50:16.904Z,11.80
2018-11-03T18:52:44.211Z,11.80
2018-11-03T18:55:11.916Z,11.80
2018-11-03T18:57:39.981Z,11.80
2018-11-03T19:00:08.568Z,11.80
2018-11-03T19:02:35.952Z,11.70
2018-11-03T19:05:04.910Z,11.70
2018-11-03T19:07:32.220Z,11.70
2018-11-03T19:09:59.516Z,11.70
2018-11-03T19:12:26.818Z,11.70
2018-11-03T19:14:54.183Z,11.70
2018-11-03T19:17:21.956Z,11.70
2018-11-03T19:19:49.432Z,11.70
2018-11-03T19:22:17.437Z,11.70
2018-11-03T19:24:44.863Z,11.70
2018-11-03T19:27:12.338Z,11.70
2018-11-03T19:29:39.827Z,11.70
2018-11-03T19:32:07.377Z,11.60
2018-11-03T19:34:34.775Z,11.70
2018-11-03T19:37:02.381Z,11.60
2018-11-03T19:39:29.933Z,11.60
2018-11-03T19:41:57.249Z,11.60
2018-11-03T19:44:25.073Z,11.50
2018-11-03T19:46:52.514Z,11.50
2018-11-03T19:49:19.883Z,11.50
2018-11-03T19:51:47.769Z,11.50
2018-11-03T19:54:14.984Z,11.50
2018-11-03T19:56:44.192Z,11.50
2018-11-03T19:59:11.530Z,11.80
2018-11-03T20:01:38.840Z,11.40
2018-11-03T20:04:06.177Z,11.50
2018-11-03T20:11:28.935Z,11.60
2018-11-03T20:13:56.490Z,11.40
2018-11-03T20:16:23.795Z,11.40
2018-11-03T20:18:51.365Z,12.00
2018-11-03T20:21:18.925Z,11.40
2018-11-03T20:23:47.109Z,11.50
2018-11-03T20:26:14.478Z,11.40
2018-11-03T20:28:41.812Z,11.40
2018-11-03T20:31:26.563Z,11.30
2018-11-03T20:34:24.309Z,11.50
2018-11-03T20:37:17.741Z,11.50
2018-11-03T21:02:47.749Z,11.30
2018-11-03T21:05:15.104Z,11.20
2018-11-03T21:07:43.089Z,11.50
2018-11-03T21:10:10.445Z,11.40
2018-11-03T21:12:37.777Z,11.40
2018-11-03T21:15:05.168Z,11.30
2018-11-03T21:17:32.506Z,11.40
2018-11-03T21:19:59.795Z,11.90
2018-11-03T21:22:27.080Z,11.30
2018-11-03T21:24:54.392Z,11.40
2018-11-03T21:27:21.683Z,11.60
2018-11-03T21:29:49.025Z,11.80
2018-11-03T21:32:16.393Z,11.30
2018-11-03T21:34:43.535Z,11.90
2018-11-03T21:37:10.816Z,11.60
2018-11-03T21:39:38.116Z,11.60
2018-11-03T21:42:05.407Z,10.50
2018-11-03T21:44:32.671Z,11.80
2018-11-03T21:47:00.071Z,11.10
2018-11-03T21:49:27.239Z,11.30
2018-11-03T21:51:54.677Z,11.20
2018-11-03T21:54:21.963Z,11.20
2018-11-03T21:56:49.405Z,11.20
2018-11-03T21:59:16.697Z,11.20
2018-11-03T22:01:44.021Z,11.30
2018-11-03T22:04:11.323Z,11.40
2018-11-03T22:06:38.715Z,11.10
2018-11-03T22:09:08.116Z,11.70
2018-11-03T22:11:36.455Z,11.20
2018-11-03T22:14:03.993Z,11.20
2018-11-03T22:16:31.248Z,11.20
2018-11-03T22:18:58.536Z,11.20
2018-11-03T22:21:25.876Z,11.10
2018-11-03T22:23:53.155Z,11.10
2018-11-03T22:26:20.471Z,11.10
2018-11-03T22:28:47.799Z,11.30
2018-11-03T22:31:19.417Z,10.90
2018-11-03T22:33:46.767Z,11.20
2018-11-03T22:36:14.100Z,11.10
2018-11-03T22:38:41.537Z,11.10
2018-11-03T22:41:08.907Z,11.20
2018-11-03T22:43:36.293Z,11.70
2018-11-03T22:46:03.730Z,11.10
2018-11-03T22:48:30.991Z,11.30
2018-11-03T22:50:58.319Z,11.60
2018-11-03T22:53:25.619Z,11.80
2018-11-03T22:55:52.875Z,11.50
2018-11-03T22:58:20.313Z,11.20
2018-11-03T23:00:53.327Z,11.20
2018-11-03T23:03:20.660Z,11.50
2018-11-03T23:05:47.931Z,10.80
2018-11-03T23:08:15.224Z,11.30
2018-11-03T23:10:42.503Z,10.60
2018-11-03T23:13:09.958Z,11.10
2018-11-03T23:15:37.132Z,11.00
2018-11-03T23:18:04.519Z,11.30
2018-11-03T23:20:31.895Z,11.50
2018-11-03T23:22:59.173Z,10.90
2018-11-03T23:25:26.528Z,11.10
2018-11-03T23:27:53.800Z,10.90
2018-11-03T23:30:21.101Z,11.00
2018-11-03T23:32:48.386Z,11.40
2018-11-03T23:35:15.691Z,10.90
2018-11-03T23:37:43.039Z,11.00
2018-11-03T23:40:10.798Z,11.00
2018-11-03T23:42:38.104Z,12.10
2018-11-03T23:45:06.159Z,10.90
2018-11-03T23:47:33.581Z,10.80
2018-11-03T23:50:00.844Z,10.10
2018-11-03T23:52:32.139Z,10.90
2018-11-03T23:54:59.425Z,10.80
2018-11-03T23:57:26.840Z,11.10
2018-11-03T23:59:54.174Z,10.90
